sensor_id;sensor_type;location;lat;lon;timestamp;P1;durP1;ratioP1;P2;durP2;ratioP2
11988;SDS011;6054;50.966;7.094;2023-08-24T00:00:46;6.97;;;3.88;;
11988;SDS011;6054;50.966;7.094;2023-08-24T00:03:12;3.83;;;3.50;;
11988;SDS011;6054;50.966;7.094;2023-08-24T00:05:40;4.18;;;3.35;;
11988;SDS011;6054;50.966;7.094;2023-08-24T00:08:07;4.75;;;3.40;;
11988;SDS011;6054;50.966;7.094;2023-08-24T00:10:36;6.85;;;4.10;;
11988;SDS011;6054;50.966;7.094;2023-08-24T00:13:03;5.53;;;3.38;;
11988;SDS011;6054;50.966;7.094;2023-08-24T00:15:30;4.35;;;3.70;;
11988;SDS011;6054;50.966;7.094;2023-08-24T00:17:57;5.88;;;3.83;;
11988;SDS011;6054;50.966;7.094;2023-08-24T00:20:23;6.63;;;3.60;;
11988;SDS011;6054;50.966;7.094;2023-08-24T00:22:52;3.90;;;3.50;;
11988;SDS011;6054;50.966;7.094;2023-08-24T00:25:19;6.57;;;3.55;;
11988;SDS011;6054;50.966;7.094;2023-08-24T00:27:47;7.18;;;3.25;;
11988;SDS011;6054;50.966;7.094;2023-08-24T00:30:14;5.07;;;3.40;;
11988;SDS011;6054;50.966;7.094;2023-08-24T00:32:41;7.50;;;3.60;;
11988;SDS011;6054;50.966;7.094;2023-08-24T00:35:08;4.90;;;3.85;;
11988;SDS011;6054;50.966;7.094;2023-08-24T00:37:35;5.13;;;3.35;;
11988;SDS011;6054;50.966;7.094;2023-08-24T00:40:03;3.88;;;3.55;;
11988;SDS011;6054;50.966;7.094;2023-08-24T00:42:36;6.30;;;3.70;;
11988;SDS011;6054;50.966;7.094;2023-08-24T00:45:06;6.75;;;3.88;;
11988;SDS011;6054;50.966;7.094;2023-08-24T00:47:34;3.70;;;3.38;;
11988;SDS011;6054;50.966;7.094;2023-08-24T00:50:02;3.40;;;3.10;;
11988;SDS011;6054;50.966;7.094;2023-08-24T00:52:31;4.65;;;3.40;;
11988;SDS011;6054;50.966;7.094;2023-08-24T00:54:59;4.70;;;3.17;;
11988;SDS011;6054;50.966;7.094;2023-08-24T00:57:26;5.10;;;3.60;;
11988;SDS011;6054;50.966;7.094;2023-08-24T00:59:53;5.07;;;3.90;;
11988;SDS011;6054;50.966;7.094;2023-08-24T01:02:22;4.88;;;3.40;;
11988;SDS011;6054;50.966;7.094;2023-08-24T01:04:49;5.32;;;3.30;;
11988;SDS011;6054;50.966;7.094;2023-08-24T01:07:16;3.92;;;3.53;;
11988;SDS011;6054;50.966;7.094;2023-08-24T01:09:44;5.60;;;3.30;;
11988;SDS011;6054;50.966;7.094;2023-08-24T01:12:14;5.70;;;3.20;;
11988;SDS011;6054;50.966;7.094;2023-08-24T01:14:53;4.53;;;3.25;;
11988;SDS011;6054;50.966;7.094;2023-08-24T01:17:30;4.93;;;3.53;;
11988;SDS011;6054;50.966;7.094;2023-08-24T01:19:58;4.60;;;3.65;;
11988;SDS011;6054;50.966;7.094;2023-08-24T01:22:32;6.25;;;3.28;;
11988;SDS011;6054;50.966;7.094;2023-08-24T01:25:06;3.40;;;3.10;;
11988;SDS011;6054;50.966;7.094;2023-08-24T01:27:41;5.57;;;3.05;;
11988;SDS011;6054;50.966;7.094;2023-08-24T01:30:09;8.25;;;3.60;;
11988;SDS011;6054;50.966;7.094;2023-08-24T01:32:36;5.43;;;3.63;;
11988;SDS011;6054;50.966;7.094;2023-08-24T01:35:04;5.22;;;3.22;;
11988;SDS011;6054;50.966;7.094;2023-08-24T01:37:34;5.18;;;2.97;;
11988;SDS011;6054;50.966;7.094;2023-08-24T01:40:04;6.38;;;2.95;;
11988;SDS011;6054;50.966;7.094;2023-08-24T01:42:35;5.32;;;3.60;;
11988;SDS011;6054;50.966;7.094;2023-08-24T01:45:05;4.30;;;3.42;;
11988;SDS011;6054;50.966;7.094;2023-08-24T01:47:33;5.65;;;3.80;;
11988;SDS011;6054;50.966;7.094;2023-08-24T01:50:01;7.00;;;3.38;;
11988;SDS011;6054;50.966;7.094;2023-08-24T01:52:29;4.65;;;3.95;;
11988;SDS011;6054;50.966;7.094;2023-08-24T01:54:56;6.38;;;3.10;;
11988;SDS011;6054;50.966;7.094;2023-08-24T01:57:22;7.15;;;3.17;;
11988;SDS011;6054;50.966;7.094;2023-08-24T01:59:49;6.60;;;3.33;;
11988;SDS011;6054;50.966;7.094;2023-08-24T02:02:17;4.20;;;3.40;;
11988;SDS011;6054;50.966;7.094;2023-08-24T02:04:44;8.15;;;3.63;;
11988;SDS011;6054;50.966;7.094;2023-08-24T02:07:11;4.20;;;3.10;;
11988;SDS011;6054;50.966;7.094;2023-08-24T02:09:37;5.15;;;3.00;;
11988;SDS011;6054;50.966;7.094;2023-08-24T02:12:04;5.75;;;3.17;;
11988;SDS011;6054;50.966;7.094;2023-08-24T02:14:31;5.65;;;3.40;;
11988;SDS011;6054;50.966;7.094;2023-08-24T02:16:58;5.07;;;3.65;;
11988;SDS011;6054;50.966;7.094;2023-08-24T02:19:26;3.85;;;3.10;;
11988;SDS011;6054;50.966;7.094;2023-08-24T02:21:53;4.32;;;3.03;;
11988;SDS011;6054;50.966;7.094;2023-08-24T02:24:19;4.57;;;3.00;;
11988;SDS011;6054;50.966;7.094;2023-08-24T02:26:46;3.72;;;3.22;;
11988;SDS011;6054;50.966;7.094;2023-08-24T02:29:13;3.70;;;3.40;;
11988;SDS011;6054;50.966;7.094;2023-08-24T02:31:40;4.30;;;3.30;;
11988;SDS011;6054;50.966;7.094;2023-08-24T02:34:06;5.18;;;3.28;;
11988;SDS011;6054;50.966;7.094;2023-08-24T02:36:34;4.72;;;3.42;;
11988;SDS011;6054;50.966;7.094;2023-08-24T02:39:01;4.95;;;3.55;;
11988;SDS011;6054;50.966;7.094;2023-08-24T02:41:30;6.32;;;3.67;;
11988;SDS011;6054;50.966;7.094;2023-08-24T02:43:57;8.20;;;3.42;;
11988;SDS011;6054;50.966;7.094;2023-08-24T02:46:23;4.72;;;3.20;;
11988;SDS011;6054;50.966;7.094;2023-08-24T02:48:50;4.90;;;3.28;;
11988;SDS011;6054;50.966;7.094;2023-08-24T02:51:17;6.07;;;3.50;;
11988;SDS011;6054;50.966;7.094;2023-08-24T02:53:47;4.80;;;3.33;;
11988;SDS011;6054;50.966;7.094;2023-08-24T02:56:14;3.88;;;3.30;;
11988;SDS011;6054;50.966;7.094;2023-08-24T02:58:40;3.92;;;3.40;;
11988;SDS011;6054;50.966;7.094;2023-08-24T03:01:07;5.43;;;3.53;;
11988;SDS011;6054;50.966;7.094;2023-08-24T03:03:34;11.43;;;3.88;;
11988;SDS011;6054;50.966;7.094;2023-08-24T03:06:02;3.92;;;3.40;;
11988;SDS011;6054;50.966;7.094;2023-08-24T03:08:31;6.32;;;3.65;;
11988;SDS011;6054;50.966;7.094;2023-08-24T03:11:00;5.40;;;3.65;;
11988;SDS011;6054;50.966;7.094;2023-08-24T03:13:28;4.95;;;3.38;;
11988;SDS011;6054;50.966;7.094;2023-08-24T03:15:56;5.30;;;3.30;;
11988;SDS011;6054;50.966;7.094;2023-08-24T03:18:23;4.63;;;3.45;;
11988;SDS011;6054;50.966;7.094;2023-08-24T03:20:49;6.30;;;3.22;;
11988;SDS011;6054;50.966;7.094;2023-08-24T03:23:16;4.03;;;3.63;;
11988;SDS011;6054;50.966;7.094;2023-08-24T03:25:43;3.90;;;3.15;;
11988;SDS011;6054;50.966;7.094;2023-08-24T03:28:11;6.88;;;3.20;;
11988;SDS011;6054;50.966;7.094;2023-08-24T03:30:38;7.78;;;3.45;;
11988;SDS011;6054;50.966;7.094;2023-08-24T03:33:16;4.63;;;3.58;;
11988;SDS011;6054;50.966;7.094;2023-08-24T03:35:44;4.20;;;3.10;;
11988;SDS011;6054;50.966;7.094;2023-08-24T03:38:11;4.70;;;3.10;;
11988;SDS011;6054;50.966;7.094;2023-08-24T03:40:38;7.25;;;3.20;;
11988;SDS011;6054;50.966;7.094;2023-08-24T03:43:04;3.53;;;3.22;;
11988;SDS011;6054;50.966;7.094;2023-08-24T03:45:33;3.65;;;3.22;;
11988;SDS011;6054;50.966;7.094;2023-08-24T03:47:59;5.40;;;3.10;;
11988;SDS011;6054;50.966;7.094;2023-08-24T03:50:26;5.25;;;3.40;;
11988;SDS011;6054;50.966;7.094;2023-08-24T03:52:53;4.72;;;3.20;;
11988;SDS011;6054;50.966;7.094;2023-08-24T03:55:20;5.00;;;3.00;;
11988;SDS011;6054;50.966;7.094;2023-08-24T03:57:48;4.53;;;3.30;;
11988;SDS011;6054;50.966;7.094;2023-08-24T04:00:14;5.53;;;3.20;;
11988;SDS011;6054;50.966;7.094;2023-08-24T04:02:43;4.13;;;3.50;;
11988;SDS011;6054;50.966;7.094;2023-08-24T04:05:10;4.93;;;3.10;;
11988;SDS011;6054;50.966;7.094;2023-08-24T04:07:37;4.45;;;3.60;;
11988;SDS011;6054;50.966;7.094;2023-08-24T04:10:06;6.55;;;3.60;;
11988;SDS011;6054;50.966;7.094;2023-08-24T04:12:33;5.18;;;3.30;;
11988;SDS011;6054;50.966;7.094;2023-08-24T04:15:00;4.07;;;3.30;;
11988;SDS011;6054;50.966;7.094;2023-08-24T04:17:27;8.10;;;3.53;;
11988;SDS011;6054;50.966;7.094;2023-08-24T04:19:55;5.82;;;3.55;;
11988;SDS011;6054;50.966;7.094;2023-08-24T04:22:22;4.03;;;3.65;;
11988;SDS011;6054;50.966;7.094;2023-08-24T04:24:49;4.45;;;3.60;;
11988;SDS011;6054;50.966;7.094;2023-08-24T04:27:16;9.85;;;3.40;;
11988;SDS011;6054;50.966;7.094;2023-08-24T04:29:42;7.38;;;3.60;;
11988;SDS011;6054;50.966;7.094;2023-08-24T04:32:09;5.93;;;3.20;;
11988;SDS011;6054;50.966;7.094;2023-08-24T04:34:36;4.30;;;3.03;;
11988;SDS011;6054;50.966;7.094;2023-08-24T04:37:05;4.63;;;3.53;;
11988;SDS011;6054;50.966;7.094;2023-08-24T04:39:32;7.35;;;3.22;;
11988;SDS011;6054;50.966;7.094;2023-08-24T04:41:59;6.00;;;3.25;;
11988;SDS011;6054;50.966;7.094;2023-08-24T04:44:25;3.95;;;3.65;;
11988;SDS011;6054;50.966;7.094;2023-08-24T04:46:52;6.25;;;3.38;;
11988;SDS011;6054;50.966;7.094;2023-08-24T04:49:19;5.00;;;3.50;;
11988;SDS011;6054;50.966;7.094;2023-08-24T04:51:46;3.70;;;3.40;;
11988;SDS011;6054;50.966;7.094;2023-08-24T04:54:14;9.10;;;3.53;;
11988;SDS011;6054;50.966;7.094;2023-08-24T04:56:40;5.95;;;3.53;;
11988;SDS011;6054;50.966;7.094;2023-08-24T04:59:08;5.93;;;3.53;;
11988;SDS011;6054;50.966;7.094;2023-08-24T05:01:35;8.27;;;3.55;;
11988;SDS011;6054;50.966;7.094;2023-08-24T05:04:02;6.40;;;3.70;;
11988;SDS011;6054;50.966;7.094;2023-08-24T05:06:29;5.18;;;3.50;;
11988;SDS011;6054;50.966;7.094;2023-08-24T05:08:56;6.30;;;3.90;;
11988;SDS011;6054;50.966;7.094;2023-08-24T05:11:26;3.90;;;3.50;;
11988;SDS011;6054;50.966;7.094;2023-08-24T05:13:54;4.15;;;3.53;;
11988;SDS011;6054;50.966;7.094;2023-08-24T05:16:21;5.93;;;3.92;;
11988;SDS011;6054;50.966;7.094;2023-08-24T05:18:48;6.15;;;3.38;;
11988;SDS011;6054;50.966;7.094;2023-08-24T05:21:14;6.13;;;3.80;;
11988;SDS011;6054;50.966;7.094;2023-08-24T05:23:41;8.38;;;3.47;;
11988;SDS011;6054;50.966;7.094;2023-08-24T05:26:08;5.63;;;4.60;;
11988;SDS011;6054;50.966;7.094;2023-08-24T05:28:36;5.72;;;3.67;;
11988;SDS011;6054;50.966;7.094;2023-08-24T05:31:03;7.50;;;3.70;;
11988;SDS011;6054;50.966;7.094;2023-08-24T05:33:30;6.47;;;3.90;;
11988;SDS011;6054;50.966;7.094;2023-08-24T05:35:58;5.43;;;4.18;;
11988;SDS011;6054;50.966;7.094;2023-08-24T05:38:25;4.50;;;3.42;;
11988;SDS011;6054;50.966;7.094;2023-08-24T05:40:51;7.72;;;3.60;;
11988;SDS011;6054;50.966;7.094;2023-08-24T05:43:18;5.53;;;3.85;;
11988;SDS011;6054;50.966;7.094;2023-08-24T05:45:47;5.80;;;3.30;;
11988;SDS011;6054;50.966;7.094;2023-08-24T05:48:14;4.57;;;3.38;;
11988;SDS011;6054;50.966;7.094;2023-08-24T05:50:43;6.22;;;3.85;;
11988;SDS011;6054;50.966;7.094;2023-08-24T05:53:10;8.00;;;3.60;;
11988;SDS011;6054;50.966;7.094;2023-08-24T05:55:37;5.25;;;3.60;;
11988;SDS011;6054;50.966;7.094;2023-08-24T05:58:04;6.15;;;3.53;;
11988;SDS011;6054;50.966;7.094;2023-08-24T06:00:31;3.97;;;2.95;;
11988;SDS011;6054;50.966;7.094;2023-08-24T06:02:59;6.22;;;3.42;;
11988;SDS011;6054;50.966;7.094;2023-08-24T06:05:26;6.95;;;3.55;;
11988;SDS011;6054;50.966;7.094;2023-08-24T06:07:53;7.80;;;3.42;;
11988;SDS011;6054;50.966;7.094;2023-08-24T06:10:19;5.95;;;3.63;;
11988;SDS011;6054;50.966;7.094;2023-08-24T06:12:46;9.93;;;3.75;;
11988;SDS011;6054;50.966;7.094;2023-08-24T06:15:13;5.50;;;3.78;;
11988;SDS011;6054;50.966;7.094;2023-08-24T06:17:41;6.95;;;4.03;;
11988;SDS011;6054;50.966;7.094;2023-08-24T06:20:10;4.95;;;3.45;;
11988;SDS011;6054;50.966;7.094;2023-08-24T06:22:37;8.52;;;3.88;;
11988;SDS011;6054;50.966;7.094;2023-08-24T06:25:05;4.32;;;3.60;;
11988;SDS011;6054;50.966;7.094;2023-08-24T06:27:33;4.20;;;3.50;;
11988;SDS011;6054;50.966;7.094;2023-08-24T06:29:59;5.15;;;3.30;;
11988;SDS011;6054;50.966;7.094;2023-08-24T06:32:26;6.03;;;3.38;;
11988;SDS011;6054;50.966;7.094;2023-08-24T06:34:53;4.60;;;3.30;;
11988;SDS011;6054;50.966;7.094;2023-08-24T06:37:21;4.97;;;3.30;;
11988;SDS011;6054;50.966;7.094;2023-08-24T06:39:48;5.40;;;3.50;;
11988;SDS011;6054;50.966;7.094;2023-08-24T06:42:15;4.93;;;3.20;;
11988;SDS011;6054;50.966;7.094;2023-08-24T06:44:42;7.30;;;3.40;;
11988;SDS011;6054;50.966;7.094;2023-08-24T06:47:08;6.97;;;3.40;;
11988;SDS011;6054;50.966;7.094;2023-08-24T06:49:35;4.03;;;2.90;;
11988;SDS011;6054;50.966;7.094;2023-08-24T06:52:02;5.50;;;3.30;;
11988;SDS011;6054;50.966;7.094;2023-08-24T06:54:30;4.10;;;2.78;;
11988;SDS011;6054;50.966;7.094;2023-08-24T06:56:57;5.13;;;2.40;;
11988;SDS011;6054;50.966;7.094;2023-08-24T06:59:24;7.82;;;3.22;;
11988;SDS011;6054;50.966;7.094;2023-08-24T07:01:50;3.58;;;2.92;;
11988;SDS011;6054;50.966;7.094;2023-08-24T07:04:17;6.25;;;3.10;;
11988;SDS011;6054;50.966;7.094;2023-08-24T07:06:44;3.92;;;2.75;;
11988;SDS011;6054;50.966;7.094;2023-08-24T07:09:11;7.15;;;3.17;;
11988;SDS011;6054;50.966;7.094;2023-08-24T07:11:39;4.10;;;2.58;;
11988;SDS011;6054;50.966;7.094;2023-08-24T07:14:06;3.58;;;2.50;;
11988;SDS011;6054;50.966;7.094;2023-08-24T07:16:32;3.47;;;2.63;;
11988;SDS011;6054;50.966;7.094;2023-08-24T07:18:59;3.55;;;2.75;;
11988;SDS011;6054;50.966;7.094;2023-08-24T07:21:27;2.70;;;2.42;;
11988;SDS011;6054;50.966;7.094;2023-08-24T07:23:55;4.03;;;2.80;;
11988;SDS011;6054;50.966;7.094;2023-08-24T07:26:22;2.75;;;2.30;;
11988;SDS011;6054;50.966;7.094;2023-08-24T07:28:51;4.72;;;2.25;;
11988;SDS011;6054;50.966;7.094;2023-08-24T07:31:18;2.38;;;2.17;;
11988;SDS011;6054;50.966;7.094;2023-08-24T07:33:45;2.63;;;2.30;;
11988;SDS011;6054;50.966;7.094;2023-08-24T07:36:12;2.30;;;1.98;;
11988;SDS011;6054;50.966;7.094;2023-08-24T07:38:39;3.03;;;1.92;;
11988;SDS011;6054;50.966;7.094;2023-08-24T07:41:05;2.42;;;2.22;;
11988;SDS011;6054;50.966;7.094;2023-08-24T07:43:32;2.78;;;2.30;;
11988;SDS011;6054;50.966;7.094;2023-08-24T07:46:00;4.30;;;2.45;;
11988;SDS011;6054;50.966;7.094;2023-08-24T07:48:27;5.40;;;2.13;;
11988;SDS011;6054;50.966;7.094;2023-08-24T07:50:54;4.50;;;2.20;;
11988;SDS011;6054;50.966;7.094;2023-08-24T07:53:20;4.53;;;2.30;;
11988;SDS011;6054;50.966;7.094;2023-08-24T07:55:47;5.13;;;2.35;;
11988;SDS011;6054;50.966;7.094;2023-08-24T07:58:14;3.55;;;2.28;;
11988;SDS011;6054;50.966;7.094;2023-08-24T08:00:41;2.67;;;2.45;;
11988;SDS011;6054;50.966;7.094;2023-08-24T08:03:09;4.63;;;2.38;;
11988;SDS011;6054;50.966;7.094;2023-08-24T08:05:35;4.10;;;2.33;;
11988;SDS011;6054;50.966;7.094;2023-08-24T08:08:02;3.72;;;2.60;;
11988;SDS011;6054;50.966;7.094;2023-08-24T08:10:30;10.65;;;2.42;;
11988;SDS011;6054;50.966;7.094;2023-08-24T08:12:57;4.38;;;2.58;;
11988;SDS011;6054;50.966;7.094;2023-08-24T08:15:24;2.47;;;2.22;;
11988;SDS011;6054;50.966;7.094;2023-08-24T08:17:51;3.50;;;2.42;;
11988;SDS011;6054;50.966;7.094;2023-08-24T08:20:19;2.35;;;2.13;;
11988;SDS011;6054;50.966;7.094;2023-08-24T08:22:45;6.53;;;2.40;;
11988;SDS011;6054;50.966;7.094;2023-08-24T08:25:12;2.80;;;2.33;;
11988;SDS011;6054;50.966;7.094;2023-08-24T08:27:39;4.20;;;2.28;;
11988;SDS011;6054;50.966;7.094;2023-08-24T08:30:06;2.95;;;2.65;;
11988;SDS011;6054;50.966;7.094;2023-08-24T08:32:33;4.72;;;2.50;;
11988;SDS011;6054;50.966;7.094;2023-08-24T08:35:00;4.35;;;2.78;;
11988;SDS011;6054;50.966;7.094;2023-08-24T08:37:31;4.93;;;2.67;;
11988;SDS011;6054;50.966;7.094;2023-08-24T08:39:58;4.97;;;2.40;;
11988;SDS011;6054;50.966;7.094;2023-08-24T08:42:25;5.70;;;2.58;;
11988;SDS011;6054;50.966;7.094;2023-08-24T08:44:51;3.97;;;2.22;;
11988;SDS011;6054;50.966;7.094;2023-08-24T08:47:20;5.05;;;2.33;;
11988;SDS011;6054;50.966;7.094;2023-08-24T08:49:47;3.90;;;2.30;;
11988;SDS011;6054;50.966;7.094;2023-08-24T08:52:14;4.07;;;2.33;;
11988;SDS011;6054;50.966;7.094;2023-08-24T08:54:43;3.55;;;2.47;;
11988;SDS011;6054;50.966;7.094;2023-08-24T08:57:09;3.10;;;2.22;;
11988;SDS011;6054;50.966;7.094;2023-08-24T08:59:37;3.30;;;2.40;;
11988;SDS011;6054;50.966;7.094;2023-08-24T09:02:04;4.25;;;2.50;;
11988;SDS011;6054;50.966;7.094;2023-08-24T09:04:35;5.63;;;2.50;;
11988;SDS011;6054;50.966;7.094;2023-08-24T09:07:02;2.50;;;2.08;;
11988;SDS011;6054;50.966;7.094;2023-08-24T09:09:35;3.50;;;2.30;;
11988;SDS011;6054;50.966;7.094;2023-08-24T09:12:04;4.30;;;2.47;;
11988;SDS011;6054;50.966;7.094;2023-08-24T09:14:32;2.67;;;2.42;;
11988;SDS011;6054;50.966;7.094;2023-08-24T09:16:59;2.90;;;2.00;;
11988;SDS011;6054;50.966;7.094;2023-08-24T09:19:27;2.60;;;2.28;;
11988;SDS011;6054;50.966;7.094;2023-08-24T09:21:56;2.25;;;2.10;;
11988;SDS011;6054;50.966;7.094;2023-08-24T09:24:28;4.43;;;2.60;;
11988;SDS011;6054;50.966;7.094;2023-08-24T09:26:57;4.95;;;2.05;;
11988;SDS011;6054;50.966;7.094;2023-08-24T09:29:25;2.80;;;2.55;;
11988;SDS011;6054;50.966;7.094;2023-08-24T09:31:52;3.22;;;2.15;;
11988;SDS011;6054;50.966;7.094;2023-08-24T09:34:18;2.40;;;2.20;;
11988;SDS011;6054;50.966;7.094;2023-08-24T09:36:46;4.50;;;2.50;;
11988;SDS011;6054;50.966;7.094;2023-08-24T09:39:15;3.38;;;2.72;;
11988;SDS011;6054;50.966;7.094;2023-08-24T09:41:45;5.57;;;2.40;;
11988;SDS011;6054;50.966;7.094;2023-08-24T09:44:16;2.65;;;2.55;;
11988;SDS011;6054;50.966;7.094;2023-08-24T09:46:44;3.22;;;2.33;;
11988;SDS011;6054;50.966;7.094;2023-08-24T09:49:11;2.35;;;2.20;;
11988;SDS011;6054;50.966;7.094;2023-08-24T09:51:38;3.47;;;2.35;;
11988;SDS011;6054;50.966;7.094;2023-08-24T09:54:06;2.47;;;2.08;;
11988;SDS011;6054;50.966;7.094;2023-08-24T09:56:35;2.58;;;2.38;;
11988;SDS011;6054;50.966;7.094;2023-08-24T09:59:07;2.90;;;2.70;;
11988;SDS011;6054;50.966;7.094;2023-08-24T10:01:40;3.22;;;2.55;;
11988;SDS011;6054;50.966;7.094;2023-08-24T10:04:10;4.47;;;2.88;;
11988;SDS011;6054;50.966;7.094;2023-08-24T10:06:38;2.67;;;2.47;;
11988;SDS011;6054;50.966;7.094;2023-08-24T10:09:06;2.55;;;2.30;;
11988;SDS011;6054;50.966;7.094;2023-08-24T10:11:34;2.53;;;2.20;;
11988;SDS011;6054;50.966;7.094;2023-08-24T10:14:07;4.00;;;2.53;;
11988;SDS011;6054;50.966;7.094;2023-08-24T10:16:38;3.58;;;2.28;;
11988;SDS011;6054;50.966;7.094;2023-08-24T10:19:07;2.67;;;2.33;;
11988;SDS011;6054;50.966;7.094;2023-08-24T10:21:36;6.72;;;2.55;;
11988;SDS011;6054;50.966;7.094;2023-08-24T10:24:04;6.13;;;2.42;;
11988;SDS011;6054;50.966;7.094;2023-08-24T10:26:32;2.63;;;2.42;;
11988;SDS011;6054;50.966;7.094;2023-08-24T10:29:00;4.28;;;2.42;;
11988;SDS011;6054;50.966;7.094;2023-08-24T10:31:27;2.88;;;2.40;;
11988;SDS011;6054;50.966;7.094;2023-08-24T10:33:54;2.65;;;2.30;;
11988;SDS011;6054;50.966;7.094;2023-08-24T10:36:23;5.30;;;2.90;;
11988;SDS011;6054;50.966;7.094;2023-08-24T10:38:51;4.10;;;2.60;;
11988;SDS011;6054;50.966;7.094;2023-08-24T10:41:22;3.53;;;2.17;;
11988;SDS011;6054;50.966;7.094;2023-08-24T10:43:53;3.47;;;2.40;;
11988;SDS011;6054;50.966;7.094;2023-08-24T10:46:34;4.32;;;2.45;;
11988;SDS011;6054;50.966;7.094;2023-08-24T10:49:03;3.65;;;2.60;;
11988;SDS011;6054;50.966;7.094;2023-08-24T10:51:31;5.25;;;2.75;;
11988;SDS011;6054;50.966;7.094;2023-08-24T10:54:09;2.97;;;2.40;;
11988;SDS011;6054;50.966;7.094;2023-08-24T10:56:36;2.60;;;2.40;;
11988;SDS011;6054;50.966;7.094;2023-08-24T10:59:10;3.78;;;2.45;;
11988;SDS011;6054;50.966;7.094;2023-08-24T11:01:39;8.40;;;2.90;;
11988;SDS011;6054;50.966;7.094;2023-08-24T11:04:06;3.63;;;2.55;;
11988;SDS011;6054;50.966;7.094;2023-08-24T11:06:50;3.05;;;2.53;;
11988;SDS011;6054;50.966;7.094;2023-08-24T11:09:17;2.83;;;2.63;;
11988;SDS011;6054;50.966;7.094;2023-08-24T11:11:54;3.40;;;2.53;;
11988;SDS011;6054;50.966;7.094;2023-08-24T11:14:22;3.55;;;2.58;;
11988;SDS011;6054;50.966;7.094;2023-08-24T11:16:51;3.35;;;2.55;;
11988;SDS011;6054;50.966;7.094;2023-08-24T11:19:20;2.75;;;2.55;;
11988;SDS011;6054;50.966;7.094;2023-08-24T11:21:49;5.07;;;2.53;;
11988;SDS011;6054;50.966;7.094;2023-08-24T11:24:17;5.28;;;2.65;;
11988;SDS011;6054;50.966;7.094;2023-08-24T11:26:44;2.60;;;2.15;;
11988;SDS011;6054;50.966;7.094;2023-08-24T11:29:11;3.40;;;2.20;;
11988;SDS011;6054;50.966;7.094;2023-08-24T11:31:39;4.32;;;2.60;;
11988;SDS011;6054;50.966;7.094;2023-08-24T11:34:06;2.58;;;2.00;;
11988;SDS011;6054;50.966;7.094;2023-08-24T11:36:41;7.78;;;2.60;;
11988;SDS011;6054;50.966;7.094;2023-08-24T11:39:14;2.88;;;2.20;;
11988;SDS011;6054;50.966;7.094;2023-08-24T11:41:42;3.72;;;2.38;;
11988;SDS011;6054;50.966;7.094;2023-08-24T11:44:10;3.00;;;2.40;;
11988;SDS011;6054;50.966;7.094;2023-08-24T11:46:37;2.47;;;2.28;;
11988;SDS011;6054;50.966;7.094;2023-08-24T11:49:04;3.58;;;2.20;;
11988;SDS011;6054;50.966;7.094;2023-08-24T11:51:32;4.07;;;2.40;;
11988;SDS011;6054;50.966;7.094;2023-08-24T11:54:00;3.00;;;2.70;;
11988;SDS011;6054;50.966;7.094;2023-08-24T11:56:28;3.50;;;2.50;;
11988;SDS011;6054;50.966;7.094;2023-08-24T11:58:55;5.32;;;2.33;;
11988;SDS011;6054;50.966;7.094;2023-08-24T12:01:21;2.40;;;2.20;;
11988;SDS011;6054;50.966;7.094;2023-08-24T12:03:49;4.57;;;2.25;;
11988;SDS011;6054;50.966;7.094;2023-08-24T12:06:16;2.78;;;2.58;;
11988;SDS011;6054;50.966;7.094;2023-08-24T12:08:45;4.35;;;2.83;;
11988;SDS011;6054;50.966;7.094;2023-08-24T12:11:14;4.95;;;2.47;;
11988;SDS011;6054;50.966;7.094;2023-08-24T12:13:48;2.97;;;2.20;;
11988;SDS011;6054;50.966;7.094;2023-08-24T12:16:16;3.03;;;2.30;;
11988;SDS011;6054;50.966;7.094;2023-08-24T12:18:47;2.90;;;2.33;;
11988;SDS011;6054;50.966;7.094;2023-08-24T12:21:17;6.72;;;2.90;;
11988;SDS011;6054;50.966;7.094;2023-08-24T12:23:44;4.38;;;2.47;;
11988;SDS011;6054;50.966;7.094;2023-08-24T12:26:17;2.50;;;2.30;;
11988;SDS011;6054;50.966;7.094;2023-08-24T12:28:49;5.50;;;2.38;;
11988;SDS011;6054;50.966;7.094;2023-08-24T12:31:17;6.85;;;2.42;;
11988;SDS011;6054;50.966;7.094;2023-08-24T12:33:44;2.80;;;2.50;;
11988;SDS011;6054;50.966;7.094;2023-08-24T12:36:11;6.28;;;2.97;;
11988;SDS011;6054;50.966;7.094;2023-08-24T12:38:38;3.30;;;3.00;;
11988;SDS011;6054;50.966;7.094;2023-08-24T12:41:06;7.25;;;2.95;;
11988;SDS011;6054;50.966;7.094;2023-08-24T12:43:33;4.20;;;2.78;;
11988;SDS011;6054;50.966;7.094;2023-08-24T12:46:01;4.07;;;2.60;;
11988;SDS011;6054;50.966;7.094;2023-08-24T12:48:28;2.60;;;2.38;;
11988;SDS011;6054;50.966;7.094;2023-08-24T12:50:55;2.80;;;2.53;;
11988;SDS011;6054;50.966;7.094;2023-08-24T12:53:21;4.63;;;2.85;;
11988;SDS011;6054;50.966;7.094;2023-08-24T12:55:48;6.50;;;3.15;;
11988;SDS011;6054;50.966;7.094;2023-08-24T12:58:15;6.85;;;3.33;;
11988;SDS011;6054;50.966;7.094;2023-08-24T13:00:43;5.30;;;2.78;;
11988;SDS011;6054;50.966;7.094;2023-08-24T13:03:11;5.28;;;3.33;;
11988;SDS011;6054;50.966;7.094;2023-08-24T13:05:38;3.63;;;2.85;;
11988;SDS011;6054;50.966;7.094;2023-08-24T13:08:04;8.45;;;3.10;;
11988;SDS011;6054;50.966;7.094;2023-08-24T13:10:31;5.10;;;3.00;;
11988;SDS011;6054;50.966;7.094;2023-08-24T13:12:58;3.83;;;2.88;;
11988;SDS011;6054;50.966;7.094;2023-08-24T13:15:25;9.48;;;3.08;;
11988;SDS011;6054;50.966;7.094;2023-08-24T13:17:52;7.88;;;3.15;;
11988;SDS011;6054;50.966;7.094;2023-08-24T13:20:20;6.43;;;3.00;;
11988;SDS011;6054;50.966;7.094;2023-08-24T13:22:46;5.70;;;3.47;;
11988;SDS011;6054;50.966;7.094;2023-08-24T13:25:13;4.40;;;2.85;;
11988;SDS011;6054;50.966;7.094;2023-08-24T13:27:40;8.95;;;3.55;;
11988;SDS011;6054;50.966;7.094;2023-08-24T13:30:07;8.27;;;3.15;;
11988;SDS011;6054;50.966;7.094;2023-08-24T13:32:34;5.03;;;3.00;;
11988;SDS011;6054;50.966;7.094;2023-08-24T13:35:01;5.60;;;3.05;;
11988;SDS011;6054;50.966;7.094;2023-08-24T13:37:29;7.45;;;3.40;;
11988;SDS011;6054;50.966;7.094;2023-08-24T13:39:57;4.07;;;2.80;;
11988;SDS011;6054;50.966;7.094;2023-08-24T13:42:24;11.00;;;3.13;;
11988;SDS011;6054;50.966;7.094;2023-08-24T13:44:51;9.60;;;3.05;;
11988;SDS011;6054;50.966;7.094;2023-08-24T13:47:18;5.30;;;2.88;;
11988;SDS011;6054;50.966;7.094;2023-08-24T13:49:46;4.30;;;2.63;;
11988;SDS011;6054;50.966;7.094;2023-08-24T13:52:13;6.80;;;2.72;;
11988;SDS011;6054;50.966;7.094;2023-08-24T13:54:42;7.00;;;2.85;;
11988;SDS011;6054;50.966;7.094;2023-08-24T13:57:09;4.95;;;2.90;;
11988;SDS011;6054;50.966;7.094;2023-08-24T13:59:36;5.97;;;2.90;;
11988;SDS011;6054;50.966;7.094;2023-08-24T14:02:03;5.05;;;2.95;;
11988;SDS011;6054;50.966;7.094;2023-08-24T14:04:31;7.03;;;2.90;;
11988;SDS011;6054;50.966;7.094;2023-08-24T14:06:58;5.95;;;2.75;;
11988;SDS011;6054;50.966;7.094;2023-08-24T14:09:25;6.70;;;2.80;;
11988;SDS011;6054;50.966;7.094;2023-08-24T14:11:53;10.43;;;2.60;;
11988;SDS011;6054;50.966;7.094;2023-08-24T14:14:19;4.45;;;2.72;;
11988;SDS011;6054;50.966;7.094;2023-08-24T14:16:46;6.18;;;3.00;;
11988;SDS011;6054;50.966;7.094;2023-08-24T14:19:19;7.00;;;3.20;;
11988;SDS011;6054;50.966;7.094;2023-08-24T14:21:46;5.60;;;2.55;;
11988;SDS011;6054;50.966;7.094;2023-08-24T14:24:13;3.90;;;2.58;;
11988;SDS011;6054;50.966;7.094;2023-08-24T14:26:39;4.18;;;2.50;;
11988;SDS011;6054;50.966;7.094;2023-08-24T14:29:11;5.13;;;2.58;;
11988;SDS011;6054;50.966;7.094;2023-08-24T14:31:39;4.47;;;2.83;;
11988;SDS011;6054;50.966;7.094;2023-08-24T14:34:06;5.18;;;2.88;;
11988;SDS011;6054;50.966;7.094;2023-08-24T14:36:33;4.53;;;2.90;;
11988;SDS011;6054;50.966;7.094;2023-08-24T14:38:59;5.78;;;2.88;;
11988;SDS011;6054;50.966;7.094;2023-08-24T14:41:26;7.30;;;2.92;;
11988;SDS011;6054;50.966;7.094;2023-08-24T14:43:53;3.83;;;2.75;;
11988;SDS011;6054;50.966;7.094;2023-08-24T14:46:21;4.65;;;2.63;;
11988;SDS011;6054;50.966;7.094;2023-08-24T14:48:48;6.18;;;2.70;;
11988;SDS011;6054;50.966;7.094;2023-08-24T14:51:14;3.40;;;2.63;;
11988;SDS011;6054;50.966;7.094;2023-08-24T14:53:41;6.03;;;2.78;;
11988;SDS011;6054;50.966;7.094;2023-08-24T14:56:08;3.20;;;2.10;;
11988;SDS011;6054;50.966;7.094;2023-08-24T14:58:35;5.25;;;3.10;;
11988;SDS011;6054;50.966;7.094;2023-08-24T15:01:02;4.10;;;2.58;;
11988;SDS011;6054;50.966;7.094;2023-08-24T15:03:31;6.30;;;2.95;;